»·PEaware :: N735SN L88-KSBP

N735SN :: L88-KSBP

FLIGHT INFORMATION

Flight Status: Arrived
Operator: Privately registered:
United States
More flights under this callsign
Pilot: Peter N. (21020)
Aircraft: CESSNA 172 SKYHAWK
(C172)
More flights by this aircraft type
Origin: L88 New Cuyama
United States
Destination: KSBP San Luis Co Regl
United States
More flights between these airports :: More routes between these airports
Route:
File this flight plan on PilotEdge
Remarks: Sample flight plan
Altitude:
(Current/Filed)
6,500ft
Speed:
(Current/Filed)
115kts
Departed: 08-Nov-18 06:43 PM
Arrived: 08-Nov-18 07:16 PM
Distance/Time
Traveled:
50nm/0:33
Distance/Time
To Go:
Arrived

Flight Plot

Page will automatically refresh every two minutes.


Map Options




Map Legend


Flown Route
Filed Route
Departure Airport
Arrival Airport
Navaid (VOR, NDB)
Fix

Horizontal Profiles

Position Reports

Time Latitude Longitude Heading Altitude Ground
Speed
08-Nov-18 18:32 34.943882 -119.690815 198 2154ft 0kts
08-Nov-18 18:33 34.943879 -119.690816 198 2154ft 0kts
08-Nov-18 18:34 34.943850 -119.690824 191 2154ft 0kts
08-Nov-18 18:35 34.943506 -119.691011 196 2154ft 14kts
08-Nov-18 18:36 34.943442 -119.691381 120 2153ft 0kts
08-Nov-18 18:37 34.943442 -119.691381 120 2153ft 0kts
08-Nov-18 18:38 34.943442 -119.691381 120 2153ft 0kts
08-Nov-18 18:39 34.943442 -119.691381 120 2153ft 0kts
08-Nov-18 18:40 34.943442 -119.691381 120 2153ft 0kts
08-Nov-18 18:41 34.943442 -119.691381 120 2153ft 0kts
08-Nov-18 18:42 34.943442 -119.691381 120 2153ft 0kts
08-Nov-18 18:43 34.943442 -119.691381 120 2153ft 0kts
08-Nov-18 18:44 34.941868 -119.690226 119 2158ft 31kts
08-Nov-18 18:45 34.937915 -119.680746 115 2197ft 14kts
08-Nov-18 18:46 34.938723 -119.682618 295 2189ft 53kts
08-Nov-18 18:47 34.948847 -119.709440 290 2809ft 99kts
08-Nov-18 18:48 34.958867 -119.741175 290 3498ft 103kts
08-Nov-18 18:49 34.969130 -119.773896 290 4197ft 103kts
08-Nov-18 18:50 34.979221 -119.806308 290 4897ft 103kts
08-Nov-18 18:51 34.989458 -119.839263 290 5597ft 104kts
08-Nov-18 18:52 34.999602 -119.871947 290 6295ft 102kts
08-Nov-18 18:53 35.010688 -119.907520 290 6524ft 126kts
08-Nov-18 18:54 35.023556 -119.948764 290 6501ft 131kts
08-Nov-18 18:55 35.036150 -119.989364 290 6500ft 131kts
08-Nov-18 18:56 35.048052 -120.027524 290 6495ft 117kts
08-Nov-18 18:57 35.059781 -120.065503 290 6496ft 120kts
08-Nov-18 18:58 35.071672 -120.103958 290 6496ft 121kts
08-Nov-18 18:59 35.083586 -120.142465 290 6496ft 121kts
08-Nov-18 19:00 35.095446 -120.180894 290 6496ft 121kts
08-Nov-18 19:01 35.106317 -120.216066 290 6488ft 103kts
08-Nov-18 19:02 35.116186 -120.248189 290 6488ft 103kts
08-Nov-18 19:03 35.126284 -120.281051 290 6488ft 103kts
08-Nov-18 19:04 35.136343 -120.313817 290 6488ft 103kts
08-Nov-18 19:05 35.146372 -120.346519 290 6487ft 100kts
08-Nov-18 19:06 35.155292 -120.375651 290 6478ft 86kts
08-Nov-18 19:07 35.155284 -120.397610 129 6501ft 80kts
08-Nov-18 19:08 35.153166 -120.372741 89 6529ft 112kts
08-Nov-18 19:09 35.133007 -120.376647 273 6523ft 117kts
08-Nov-18 19:10 35.154369 -120.405252 318 6517ft 116kts
08-Nov-18 19:11 35.157767 -120.408905 318 6517ft 116kts
08-Nov-18 19:12 35.169988 -120.429254 297 6349ft 125kts
08-Nov-18 19:13 35.179996 -120.457528 291 6067ft 129kts
08-Nov-18 19:14 35.190695 -120.491850 290 5733ft 129kts
08-Nov-18 19:15 35.203555 -120.533753 291 4798ft 129kts
08-Nov-18 19:16 35.209827 -120.574958 262 3357ft 127kts
08-Nov-18 19:17 35.220760 -120.613688 308 1780ft 102kts
08-Nov-18 19:18 35.234232 -120.635622 306 360ft 79kts
08-Nov-18 19:19 35.239808 -120.644036 42 175ft 0kts
08-Nov-18 19:20 35.239833 -120.643240 39 178ft 5kts
08-Nov-18 19:21 35.240161 -120.643197 213 178ft 0kts
08-Nov-18 19:22 35.240161 -120.643197 213 178ft 0kts
08-Nov-18 19:23 35.240161 -120.643197 213 178ft 0kts
08-Nov-18 19:24 35.240161 -120.643197 213 178ft 0kts
08-Nov-18 19:25 35.240161 -120.643197 213 178ft 0kts
08-Nov-18 19:26 35.240161 -120.643197 213 178ft 0kts
08-Nov-18 19:27 35.240161 -120.643197 213 178ft 0kts
08-Nov-18 19:28 35.240161 -120.643197 213 178ft 0kts
08-Nov-18 19:29 35.240161 -120.643197 213 178ft 0kts
08-Nov-18 19:30 35.240161 -120.643197 213 178ft 0kts
08-Nov-18 19:31 35.240161 -120.643197 213 178ft 0kts

Navigation Log

Ident Type
1. L88 Airport
2. KSBP Airport